Time;durP1;ratioP1;P1;durP2;ratioP2;P2;SDS_P1;SDS_P2;PMS_P1;PMS_P2;Temp;Humidity;BMP_temperature;BMP_pressure;BME280_temperature;BME280_humidity;BME280_pressure;Samples;Min_cycle;Max_cycle;Signal;HPM_P1;HPM_P2
2023/03/28 02:11:47;;;;;;;10.32;3.40;;;10.50;66.30;;;;;;6238409;23;20821;-75
2023/03/28 02:14:17;;;;;;;5.35;2.67;;;10.40;66.30;;;;;;6247008;22;20542;-75
2023/03/28 02:16:44;;;;;;;5.47;2.33;;;10.40;66.20;;;;;;6244911;22;20472;-76
2023/03/28 02:19:12;;;;;;;3.95;2.20;;;10.40;66.50;;;;;;6244917;22;20022;-75
2023/03/28 02:21:57;;;;;;;6.40;2.75;;;10.30;66.30;;;;;;6245038;22;20050;-76
2023/03/28 02:24:24;;;;;;;4.32;2.15;;;10.30;66.40;;;;;;6244637;22;20083;-75
2023/03/28 02:26:52;;;;;;;5.20;2.78;;;10.30;66.50;;;;;;6244953;22;20013;-76
2023/03/28 02:29:18;;;;;;;6.57;2.60;;;10.30;66.70;;;;;;6244908;22;19996;-76
2023/03/28 02:31:45;;;;;;;6.93;2.58;;;10.40;66.30;;;;;;6246580;22;20027;-76
2023/03/28 02:34:11;;;;;;;6.80;2.75;;;10.40;66.30;;;;;;6247376;22;20075;-76
2023/03/28 02:36:51;;;;;;;5.63;2.70;;;10.40;66.30;;;;;;6246835;23;20008;-75
2023/03/28 02:39:35;;;;;;;6.72;2.85;;;10.40;66.40;;;;;;6246691;23;19996;-76
2023/03/28 02:42:33;;;;;;;4.25;2.20;;;10.40;66.50;;;;;;6246861;22;20079;-75
2023/03/28 02:45:22;;;;;;;5.25;2.30;;;10.40;66.60;;;;;;6200056;22;20134;-77
2023/03/28 02:48:10;;;;;;;6.18;2.72;;;10.40;66.50;;;;;;6246814;22;20026;-74
2023/03/28 02:50:47;;;;;;;8.07;3.28;;;10.30;66.60;;;;;;6246837;23;20000;-75
2023/03/28 02:53:34;;;;;;;7.38;2.30;;;10.30;66.80;;;;;;6246612;23;20083;-75
2023/03/28 02:56:09;;;;;;;6.93;2.50;;;10.20;66.60;;;;;;6244902;23;20004;-76
2023/03/28 02:58:47;;;;;;;4.35;2.35;;;10.20;66.60;;;;;;6246278;22;20098;-75
2023/03/28 03:01:16;;;;;;;4.85;2.28;;;10.20;67.20;;;;;;6246772;22;20016;-75
2023/03/28 03:03:42;;;;;;;6.15;2.47;;;10.20;66.80;;;;;;6246904;22;20013;-77
2023/03/28 03:06:09;;;;;;;4.60;2.22;;;10.30;67.20;;;;;;6246412;22;20022;-77
2023/03/28 03:08:35;;;;;;;5.15;2.10;;;10.30;67.10;;;;;;6246545;23;20023;-76
2023/03/28 03:11:00;;;;;;;4.40;2.05;;;10.30;66.90;;;;;;6244934;23;20307;-76
2023/03/28 03:13:26;;;;;;;3.47;1.90;;;10.40;66.90;;;;;;6246287;23;20091;-76
2023/03/28 03:15:54;;;;;;;6.82;2.08;;;10.40;66.90;;;;;;6246319;23;20084;-78
2023/03/28 03:18:21;;;;;;;4.47;2.40;;;10.40;67.10;;;;;;6246484;22;20006;-76
2023/03/28 03:20:49;;;;;;;5.05;2.10;;;10.40;67.20;;;;;;6245951;23;20031;-76
2023/03/28 03:23:15;;;;;;;5.25;2.00;;;10.40;67.10;;;;;;6246233;22;20071;-75
2023/03/28 03:25:42;;;;;;;8.13;2.45;;;10.40;66.90;;;;;;6246314;22;20441;-77
2023/03/28 03:28:07;;;;;;;4.50;2.22;;;10.40;66.90;;;;;;6246824;22;20020;-75
2023/03/28 03:30:33;;;;;;;4.72;1.98;;;10.30;66.60;;;;;;6244942;23;20084;-76
2023/03/28 03:32:59;;;;;;;4.05;2.05;;;10.30;67.00;;;;;;6246415;23;20007;-76
2023/03/28 03:35:27;;;;;;;6.35;2.40;;;10.20;67.00;;;;;;6246425;22;20022;-76
2023/03/28 03:37:54;;;;;;;4.03;2.03;;;10.10;67.00;;;;;;6246297;22;20069;-76
2023/03/28 03:40:19;;;;;;;9.10;2.67;;;10.10;67.20;;;;;;6246280;22;20007;-76
2023/03/28 03:42:45;;;;;;;4.63;2.40;;;10.10;67.20;;;;;;6245941;23;20000;-76
2023/03/28 03:45:12;;;;;;;5.72;2.28;;;10.10;67.40;;;;;;6246171;23;20004;-76
2023/03/28 03:47:37;;;;;;;6.20;2.28;;;10.00;68.10;;;;;;6246328;22;20008;-76
2023/03/28 03:50:04;;;;;;;5.88;2.67;;;10.00;67.80;;;;;;6245846;23;20063;-74
2023/03/28 03:52:30;;;;;;;6.25;2.45;;;10.00;67.70;;;;;;6246280;22;20016;-76
2023/03/28 03:54:55;;;;;;;7.28;2.50;;;10.10;67.80;;;;;;6245995;23;20474;-78
2023/03/28 03:57:21;;;;;;;6.22;2.42;;;10.00;67.70;;;;;;6246158;23;20011;-75
2023/03/28 03:59:46;;;;;;;5.15;1.67;;;10.00;67.60;;;;;;6245974;22;20079;-75
2023/03/28 04:02:12;;;;;;;6.80;2.58;;;10.00;67.60;;;;;;6246028;23;20050;-77
2023/03/28 04:04:39;;;;;;;6.20;2.15;;;10.00;67.60;;;;;;6246201;23;20000;-75
2023/03/28 04:07:05;;;;;;;4.47;1.80;;;10.00;67.60;;;;;;6245930;22;20019;-75
2023/03/28 04:09:31;;;;;;;5.35;1.70;;;10.00;67.30;;;;;;6246036;22;20050;-77
2023/03/28 04:11:57;;;;;;;3.35;1.63;;;10.00;67.30;;;;;;6245945;23;20071;-76
2023/03/28 04:14:23;;;;;;;5.93;1.55;;;9.90;68.10;;;;;;6245341;22;20044;-75
2023/03/28 04:16:49;;;;;;;2.72;1.42;;;9.90;68.30;;;;;;6245368;23;20386;-75
2023/03/28 04:19:16;;;;;;;3.65;1.50;;;9.90;68.30;;;;;;6245509;22;20447;-76
2023/03/28 04:21:47;;;;;;;3.17;1.42;;;9.80;68.00;;;;;;6245922;22;20084;-75
2023/03/28 04:24:16;;;;;;;2.28;1.30;;;9.80;68.80;;;;;;6245670;22;20008;-76
2023/03/28 04:26:44;;;;;;;3.92;1.50;;;9.80;67.80;;;;;;6245619;22;20480;-77
2023/03/28 04:29:11;;;;;;;2.25;1.30;;;9.70;67.80;;;;;;6245673;22;20091;-76
2023/03/28 04:31:38;;;;;;;3.05;1.60;;;9.60;67.90;;;;;;6243934;23;20008;-77
2023/03/28 04:34:07;;;;;;;4.63;1.30;;;9.60;67.70;;;;;;6245955;22;20087;-77
2023/03/28 04:36:33;;;;;;;3.03;1.30;;;9.70;68.10;;;;;;6245498;22;20019;-75
2023/03/28 04:39:01;;;;;;;2.22;1.10;;;9.70;67.90;;;;;;6245520;22;20004;-78
2023/03/28 04:41:27;;;;;;;2.67;1.00;;;9.70;67.70;;;;;;6245900;22;20095;-76
2023/03/28 04:43:53;;;;;;;4.90;1.10;;;9.70;67.70;;;;;;6245601;22;20015;-77
2023/03/28 04:46:19;;;;;;;1.63;1.00;;;9.60;67.50;;;;;;6245555;23;20012;-75
2023/03/28 04:48:45;;;;;;;2.42;1.00;;;9.60;67.50;;;;;;6245005;23;20058;-76
2023/03/28 04:51:11;;;;;;;3.30;1.08;;;9.60;67.40;;;;;;6245521;23;20276;-77
2023/03/28 04:53:37;;;;;;;2.17;0.90;;;9.50;67.40;;;;;;6244988;23;20006;-76
2023/03/28 04:56:04;;;;;;;2.67;1.10;;;9.50;67.40;;;;;;6245484;22;20004;-78
2023/03/28 04:58:31;;;;;;;1.40;0.90;;;9.50;67.30;;;;;;6245663;22;20004;-78
2023/03/28 05:00:56;;;;;;;1.25;0.63;;;9.50;67.30;;;;;;6245438;22;20004;-75
2023/03/28 05:03:23;;;;;;;4.05;0.98;;;9.40;67.20;;;;;;6245869;23;20456;-76
2023/03/28 05:05:51;;;;;;;2.50;1.00;;;9.40;67.30;;;;;;6245715;22;20119;-76
2023/03/28 05:08:21;;;;;;;2.17;1.02;;;9.40;67.20;;;;;;6245392;22;20023;-77
2023/03/28 05:10:48;;;;;;;2.95;1.35;;;9.40;67.20;;;;;;6245494;22;20005;-78
2023/03/28 05:13:15;;;;;;;2.25;0.98;;;9.50;67.20;;;;;;6244837;22;20028;-77
2023/03/28 05:15:41;;;;;;;3.20;0.93;;;9.50;67.20;;;;;;6243597;23;20430;-76
2023/03/28 05:18:07;;;;;;;1.70;0.80;;;9.50;67.40;;;;;;6245315;22;19996;-77
2023/03/28 05:20:34;;;;;;;2.42;1.00;;;9.50;67.50;;;;;;6245076;22;20343;-76
2023/03/28 05:23:01;;;;;;;1.88;1.05;;;9.50;67.30;;;;;;6244777;22;20462;-77
2023/03/28 05:25:27;;;;;;;2.17;1.02;;;9.50;67.30;;;;;;6245258;22;20030;-77
2023/03/28 05:27:53;;;;;;;2.80;0.98;;;9.60;67.30;;;;;;6245389;23;20446;-74
2023/03/28 05:30:19;;;;;;;3.67;1.00;;;9.60;67.20;;;;;;6245133;22;20000;-77
2023/03/28 05:32:45;;;;;;;7.45;0.98;;;9.60;67.30;;;;;;6244878;22;20008;-75
2023/03/28 05:35:13;;;;;;;1.48;0.73;;;9.60;67.30;;;;;;6245536;22;20016;-75
2023/03/28 05:37:39;;;;;;;3.80;0.98;;;9.70;67.20;;;;;;6243258;23;20357;-76
2023/03/28 05:40:06;;;;;;;2.08;1.00;;;9.70;67.10;;;;;;6245263;22;20008;-77
2023/03/28 05:42:32;;;;;;;2.30;1.08;;;9.70;66.90;;;;;;6243044;23;20438;-76
2023/03/28 05:44:58;;;;;;;3.60;1.10;;;9.80;67.00;;;;;;6245039;22;20431;-77
2023/03/28 05:47:24;;;;;;;2.38;0.98;;;9.80;66.80;;;;;;6245418;23;20012;-77
2023/03/28 05:49:50;;;;;;;5.40;0.98;;;9.80;66.80;;;;;;6245290;23;19997;-77
2023/03/28 05:52:15;;;;;;;1.65;1.00;;;9.80;66.60;;;;;;6243154;23;20011;-78
2023/03/28 05:54:41;;;;;;;1.85;0.90;;;9.80;66.90;;;;;;6244871;23;20373;-72
2023/03/28 05:57:07;;;;;;;3.42;1.30;;;9.80;66.80;;;;;;6244511;23;20000;-77
2023/03/28 05:59:32;;;;;;;4.38;1.45;;;9.90;66.90;;;;;;6244571;23;20410;-76
2023/03/28 06:01:59;;;;;;;4.03;1.20;;;10.10;65.90;;;;;;6244568;23;20031;-77
2023/03/28 06:04:24;;;;;;;2.92;1.33;;;10.10;65.50;;;;;;6242878;23;20135;-77
2023/03/28 06:06:50;;;;;;;6.00;1.30;;;10.40;65.30;;;;;;6246561;23;20050;-76
2023/03/28 06:09:17;;;;;;;4.72;1.48;;;10.50;64.70;;;;;;6246730;23;20023;-76
2023/03/28 06:11:43;;;;;;;2.72;1.30;;;10.80;64.60;;;;;;6246945;22;20494;-75
2023/03/28 06:14:09;;;;;;;2.78;1.10;;;11.00;63.50;;;;;;6246316;23;20039;-76
2023/03/28 06:16:36;;;;;;;2.70;1.30;;;11.20;63.10;;;;;;6246225;22;20000;-76
2023/03/28 06:19:02;;;;;;;2.42;1.10;;;11.30;62.10;;;;;;6246770;22;20030;-78
2023/03/28 06:21:28;;;;;;;1.95;1.00;;;11.40;62.10;;;;;;6246935;22;19997;-73
2023/03/28 06:23:54;;;;;;;4.93;2.08;;;11.50;61.50;;;;;;6246782;22;20083;-78
2023/03/28 06:26:20;;;;;;;5.82;1.20;;;11.70;61.70;;;;;;6245292;23;20049;-78
2023/03/28 06:28:46;;;;;;;5.25;1.30;;;11.90;61.30;;;;;;6246796;23;20000;-74
2023/03/28 06:31:12;;;;;;;2.10;1.15;;;12.00;60.70;;;;;;6247092;22;20000;-78
2023/03/28 06:33:40;;;;;;;2.70;1.40;;;12.20;60.00;;;;;;6245607;23;20011;-77
2023/03/28 06:36:10;;;;;;;2.50;1.25;;;12.20;60.10;;;;;;6246911;22;19996;-68
2023/03/28 06:38:35;;;;;;;2.53;1.25;;;12.20;59.70;;;;;;6246689;22;20008;-77
2023/03/28 06:41:01;;;;;;;3.70;1.27;;;12.30;59.40;;;;;;6246356;23;20001;-79
2023/03/28 06:43:27;;;;;;;7.70;1.45;;;12.40;59.60;;;;;;6245825;22;20000;-78
2023/03/28 06:45:53;;;;;;;5.22;1.42;;;12.50;59.70;;;;;;6246305;22;20019;-77
2023/03/28 06:48:19;;;;;;;6.47;1.23;;;12.70;59.30;;;;;;6246098;23;20015;-79
2023/03/28 06:50:48;;;;;;;4.75;1.45;;;12.70;59.20;;;;;;6245705;22;20074;-76
2023/03/28 06:53:15;;;;;;;2.85;1.10;;;12.90;58.90;;;;;;6244218;23;20345;-78
2023/03/28 06:55:41;;;;;;;4.05;1.23;;;12.90;59.10;;;;;;6246023;22;20006;-76
2023/03/28 06:58:06;;;;;;;4.45;1.17;;;13.00;59.30;;;;;;6245794;22;20079;-76
2023/03/28 07:00:33;;;;;;;4.05;1.42;;;13.00;59.00;;;;;;6245473;23;20066;-77
2023/03/28 07:02:58;;;;;;;5.22;1.38;;;13.20;58.90;;;;;;6246142;22;20446;-75
2023/03/28 07:05:24;;;;;;;3.90;1.48;;;13.30;58.90;;;;;;6245879;22;20000;-77
2023/03/28 07:07:50;;;;;;;3.72;1.70;;;13.40;58.60;;;;;;6245674;23;20430;-76
2023/03/28 07:10:16;;;;;;;6.93;1.63;;;13.70;58.50;;;;;;6245338;23;20023;-76
2023/03/28 07:12:41;;;;;;;3.55;1.30;;;13.80;57.70;;;;;;6245656;23;20020;-78
2023/03/28 07:15:07;;;;;;;3.38;1.20;;;13.90;57.70;;;;;;6248595;22;20000;-76
2023/03/28 07:17:33;;;;;;;3.40;1.40;;;14.00;57.70;;;;;;6244936;23;20027;-78
2023/03/28 07:20:00;;;;;;;2.90;1.33;;;14.00;56.90;;;;;;6246090;23;20079;-78
2023/03/28 07:22:26;;;;;;;2.85;0.90;;;14.00;56.70;;;;;;6245763;22;20027;-79
2023/03/28 07:24:52;;;;;;;7.05;1.33;;;14.00;56.40;;;;;;6246242;22;20013;-78
2023/03/28 07:27:18;;;;;;;3.28;0.90;;;14.00;56.80;;;;;;6246040;22;20013;-79
2023/03/28 07:29:44;;;;;;;5.38;1.25;;;14.00;56.40;;;;;;6245540;22;20434;-75
2023/03/28 07:32:10;;;;;;;5.80;1.17;;;14.10;56.30;;;;;;6245654;23;20000;-78
2023/03/28 07:34:36;;;;;;;1.38;0.70;;;14.10;55.30;;;;;;6245825;22;20280;-77
2023/03/28 07:37:01;;;;;;;1.20;1.00;;;14.00;54.10;;;;;;6245504;23;20000;-78
2023/03/28 07:39:27;;;;;;;2.35;1.10;;;13.90;54.50;;;;;;6245736;23;20407;-76
2023/03/28 07:41:53;;;;;;;2.38;1.15;;;13.80;54.20;;;;;;6246143;22;20008;-77
2023/03/28 07:44:18;;;;;;;3.80;1.48;;;13.80;53.70;;;;;;6246052;23;20084;-77
2023/03/28 07:46:45;;;;;;;8.27;1.23;;;13.90;54.30;;;;;;6245690;23;20062;-78
2023/03/28 07:49:11;;;;;;;2.00;0.80;;;13.90;53.70;;;;;;6245796;22;20414;-75
2023/03/28 07:51:37;;;;;;;3.30;1.15;;;13.90;54.00;;;;;;6245665;22;20007;-78
2023/03/28 07:54:03;;;;;;;4.07;1.05;;;13.90;52.70;;;;;;6245748;22;20015;-76
2023/03/28 07:56:30;;;;;;;1.48;0.80;;;13.90;51.90;;;;;;6246021;22;20005;-75
2023/03/28 07:58:56;;;;;;;5.70;1.42;;;13.90;52.60;;;;;;6249213;22;20024;-77
2023/03/28 08:01:22;;;;;;;2.55;1.00;;;13.90;51.90;;;;;;6244224;23;20083;-76
2023/03/28 08:03:47;;;;;;;1.58;0.77;;;14.00;51.60;;;;;;6245291;23;20081;-74
2023/03/28 08:06:14;;;;;;;2.47;1.00;;;13.90;51.30;;;;;;6246016;23;20008;-79
2023/03/28 08:08:40;;;;;;;2.53;0.82;;;13.90;51.60;;;;;;6245922;22;20008;-77
2023/03/28 08:11:06;;;;;;;1.88;1.05;;;13.90;51.40;;;;;;6245681;22;20003;-78
2023/03/28 08:13:32;;;;;;;2.05;1.17;;;13.90;51.60;;;;;;6245332;22;20054;-76
2023/03/28 08:15:58;;;;;;;3.38;0.80;;;13.90;51.50;;;;;;6245527;23;20071;-75
2023/03/28 08:18:25;;;;;;;1.90;0.80;;;13.80;51.20;;;;;;6245454;23;20036;-78
2023/03/28 08:21:01;;;;;;;3.03;0.90;;;13.80;50.50;;;;;;6245540;22;20087;-77
2023/03/28 08:23:27;;;;;;;3.05;1.20;;;13.80;51.60;;;;;;6245447;22;20004;-78
2023/03/28 08:26:04;;;;;;;3.80;1.20;;;13.80;50.40;;;;;;6245398;22;20008;-77
2023/03/28 08:28:32;;;;;;;4.88;1.05;;;13.80;49.90;;;;;;6245143;22;20012;-77
2023/03/28 08:30:58;;;;;;;3.55;1.00;;;13.80;50.00;;;;;;6245877;22;20023;-75
2023/03/28 08:33:25;;;;;;;1.98;0.80;;;13.80;49.90;;;;;;6245000;23;20430;-78
2023/03/28 08:35:52;;;;;;;3.45;1.13;;;13.80;50.10;;;;;;6245860;22;20008;-78
2023/03/28 08:38:18;;;;;;;3.08;1.08;;;13.80;49.90;;;;;;6245489;22;20000;-77
2023/03/28 08:40:53;;;;;;;5.75;1.92;;;13.90;50.20;;;;;;6246183;22;20500;-78
2023/03/28 08:43:30;;;;;;;2.45;1.02;;;14.00;49.60;;;;;;6246575;22;20332;-79
2023/03/28 08:45:58;;;;;;;5.32;1.20;;;14.00;50.80;;;;;;6243605;23;20012;-77
2023/03/28 08:48:38;;;;;;;2.20;0.98;;;14.10;49.50;;;;;;6245157;22;20012;-78
2023/03/28 08:51:26;;;;;;;10.18;1.88;;;14.20;48.50;;;;;;6245607;22;20004;-77
2023/03/28 08:54:11;;;;;;;3.92;1.45;;;14.30;50.60;;;;;;6246219;22;20020;-77
2023/03/28 08:56:54;;;;;;;2.78;1.02;;;14.20;48.00;;;;;;6246007;22;20461;-77
2023/03/28 08:59:33;;;;;;;6.13;1.10;;;14.20;49.10;;;;;;6245174;22;20076;-76
2023/03/28 09:01:59;;;;;;;3.67;0.77;;;14.20;49.20;;;;;;6245411;23;20000;-77
2023/03/28 09:04:33;;;;;;;3.42;1.00;;;14.20;47.60;;;;;;6245026;23;20004;-77
2023/03/28 09:07:25;;;;;;;3.05;1.27;;;14.20;48.40;;;;;;6244853;22;20012;-78
2023/03/28 09:10:21;;;;;;;8.35;1.08;;;14.20;48.30;;;;;;6245608;23;20028;-77
2023/03/28 09:12:56;;;;;;;4.68;1.15;;;14.30;45.80;;;;;;6242979;23;20446;-76
2023/03/28 09:15:33;;;;;;;5.32;1.15;;;14.30;46.90;;;;;;6245307;23;20067;-77
2023/03/28 09:18:25;;;;;;;1.92;1.10;;;14.40;46.00;;;;;;6244698;23;20071;-76
2023/03/28 09:20:53;;;;;;;2.88;1.02;;;14.30;45.70;;;;;;6244985;23;19996;-78
2023/03/28 09:23:39;;;;;;;2.85;0.93;;;14.30;44.70;;;;;;6244848;22;20015;-77
2023/03/28 09:26:16;;;;;;;2.42;1.00;;;14.30;44.90;;;;;;6246648;22;20029;-76
2023/03/28 09:29:02;;;;;;;3.92;1.48;;;14.30;44.80;;;;;;6245890;22;20024;-77
2023/03/28 09:31:48;;;;;;;2.47;1.00;;;14.40;45.10;;;;;;6245002;23;20346;-75
2023/03/28 09:34:26;;;;;;;2.70;1.08;;;14.50;45.10;;;;;;6245170;22;20027;-78
2023/03/28 09:36:57;;;;;;;1.83;1.08;;;14.60;44.90;;;;;;6244989;22;20027;-77
2023/03/28 09:39:36;;;;;;;4.80;1.42;;;14.70;44.50;;;;;;6244855;22;20014;-76
2023/03/28 09:42:16;;;;;;;3.88;1.48;;;14.80;44.60;;;;;;6244836;22;20004;-77
2023/03/28 09:44:50;;;;;;;3.00;1.00;;;14.80;43.60;;;;;;6244797;23;20434;-77
2023/03/28 09:47:15;;;;;;;3.13;1.05;;;14.80;42.70;;;;;;6245140;22;20020;-76
2023/03/28 09:49:41;;;;;;;3.90;1.52;;;14.80;43.10;;;;;;6245084;22;20489;-76
2023/03/28 09:52:20;;;;;;;4.60;1.30;;;14.90;42.90;;;;;;6245043;22;20000;-77
2023/03/28 09:54:47;;;;;;;11.07;3.92;;;15.00;43.30;;;;;;6244472;22;20004;-75
2023/03/28 09:57:13;;;;;;;4.05;1.98;;;15.10;43.10;;;;;;6244873;23;20376;-76
2023/03/28 09:59:39;;;;;;;2.53;1.20;;;15.20;42.50;;;;;;6244757;23;20071;-76
2023/03/28 10:02:29;;;;;;;2.90;1.08;;;15.20;41.40;;;;;;6244675;23;20333;-78
2023/03/28 10:04:55;;;;;;;2.33;1.15;;;15.20;40.60;;;;;;6244601;22;20008;-78
2023/03/28 10:07:56;;;;;;;2.65;1.00;;;15.30;40.10;;;;;;6244608;23;20012;-78
2023/03/28 10:10:23;;;;;;;2.70;1.20;;;15.30;38.60;;;;;;6181691;22;20012;-77
2023/03/28 10:12:56;;;;;;;3.90;1.33;;;15.30;39.90;;;;;;6244971;22;20358;-78
2023/03/28 10:15:34;;;;;;;4.25;1.50;;;15.30;39.50;;;;;;6244949;22;20385;-76
2023/03/28 10:18:03;;;;;;;2.67;1.10;;;15.40;39.70;;;;;;6244745;22;20059;-77
2023/03/28 10:20:34;;;;;;;3.47;1.40;;;15.50;39.90;;;;;;6244564;22;20031;-77
2023/03/28 10:23:02;;;;;;;2.65;1.30;;;15.50;38.80;;;;;;6244543;22;20000;-77
2023/03/28 10:25:43;;;;;;;3.22;1.50;;;15.50;38.00;;;;;;6244650;22;20008;-78
2023/03/28 10:28:33;;;;;;;3.47;1.10;;;15.60;37.70;;;;;;6244859;22;20015;-78
2023/03/28 10:31:00;;;;;;;3.78;1.60;;;15.60;35.80;;;;;;6244333;22;20000;-78
2023/03/28 10:33:40;;;;;;;3.47;1.10;;;15.70;36.90;;;;;;6244533;22;20001;-79
2023/03/28 10:36:11;;;;;;;5.88;1.30;;;15.70;36.80;;;;;;6244469;22;20000;-77
2023/03/28 10:38:45;;;;;;;4.20;1.17;;;15.90;37.10;;;;;;6243909;22;20075;-80
2023/03/28 10:41:22;;;;;;;2.65;1.50;;;15.90;36.60;;;;;;6244051;22;20008;-76
2023/03/28 10:43:48;;;;;;;3.38;1.30;;;16.00;33.90;;;;;;6242467;23;20000;-77
2023/03/28 10:46:19;;;;;;;2.40;1.10;;;15.90;34.90;;;;;;6244577;22;20004;-77
2023/03/28 10:49:08;;;;;;;2.75;1.20;;;15.90;34.40;;;;;;6244432;22;20379;-77
2023/03/28 10:51:39;;;;;;;2.55;1.35;;;15.90;34.90;;;;;;6222668;23;20008;-78
2023/03/28 10:54:23;;;;;;;2.60;1.17;;;16.00;35.00;;;;;;6245961;22;19997;-78
2023/03/28 10:56:56;;;;;;;;;;;16.00;32.40;;;;;;6248817;23;20272;-77
2023/03/28 10:59:50;;;;;;;2.70;1.00;;;16.10;31.40;;;;;;6246922;22;20307;-78
2023/03/28 11:02:37;;;;;;;2.72;1.20;;;16.10;32.10;;;;;;6246682;22;20114;-76
2023/03/28 11:05:45;;;;;;;4.85;1.35;;;16.10;31.80;;;;;;6245805;23;20000;-79
2023/03/28 11:08:25;;;;;;;3.60;1.40;;;16.20;34.30;;;;;;6123187;23;20022;-78
2023/03/28 11:11:13;;;;;;;3.53;0.95;;;16.20;31.90;;;;;;6239076;22;20015;-77
2023/03/28 11:13:47;;;;;;;5.20;1.33;;;16.30;31.20;;;;;;6245584;23;20468;-77
2023/03/28 11:16:39;;;;;;;2.80;1.50;;;16.30;33.30;;;;;;6245983;23;20071;-76
2023/03/28 11:19:19;;;;;;;1.95;1.02;;;16.40;32.30;;;;;;6245705;23;20027;-78
2023/03/28 11:22:06;;;;;;;4.10;1.13;;;16.60;34.10;;;;;;6245874;23;19997;-79
2023/03/28 11:24:57;;;;;;;4.03;1.33;;;16.60;30.60;;;;;;6245953;22;20004;-78
2023/03/28 11:27:54;;;;;;;3.63;1.30;;;16.60;30.60;;;;;;6244391;23;20016;-78
2023/03/28 11:30:25;;;;;;;2.90;1.33;;;16.60;30.60;;;;;;6179505;22;20016;-78
2023/03/28 11:33:15;;;;;;;2.53;1.20;;;16.60;32.30;;;;;;6245915;22;20437;-79
2023/03/28 11:35:53;;;;;;;2.15;1.27;;;16.70;30.60;;;;;;6245790;22;20020;-77
2023/03/28 11:38:42;;;;;;;3.35;1.10;;;16.70;29.90;;;;;;6246164;22;20008;-77
2023/03/28 11:41:20;;;;;;;3.22;0.95;;;16.80;29.80;;;;;;6249421;22;20075;-78
2023/03/28 11:44:00;;;;;;;3.40;1.50;;;16.90;30.80;;;;;;6248392;22;20007;-76
2023/03/28 11:46:28;;;;;;;3.00;1.27;;;16.90;30.00;;;;;;6245797;22;20004;-79
2023/03/28 11:49:12;;;;;;;1.92;0.90;;;17.00;30.10;;;;;;6245745;23;20426;-76
2023/03/28 11:51:54;;;;;;;2.88;1.45;;;17.10;29.70;;;;;;6245542;23;20050;-77
2023/03/28 11:54:37;;;;;;;4.85;1.50;;;17.10;29.00;;;;;;6245875;22;20000;-77
2023/03/28 11:57:23;;;;;;;1.92;1.17;;;17.10;29.20;;;;;;6245978;23;20007;-77
2023/03/28 12:00:05;;;;;;;2.38;1.13;;;17.10;29.10;;;;;;6245528;22;20405;-76
2023/03/28 12:02:52;;;;;;;3.45;1.38;;;17.20;29.30;;;;;;6245157;22;20000;-77
2023/03/28 12:05:31;;;;;;;4.82;1.63;;;17.30;30.00;;;;;;6245571;22;20437;-77
2023/03/28 12:08:08;;;;;;;3.65;1.33;;;17.40;29.80;;;;;;6245525;22;20012;-77
2023/03/28 12:10:35;;;;;;;2.78;1.20;;;17.50;29.30;;;;;;6245636;22;20453;-77
2023/03/28 12:13:30;;;;;;;2.53;1.23;;;17.50;27.20;;;;;;6245454;22;20020;-76
2023/03/28 12:16:04;;;;;;;1.95;1.05;;;17.50;25.90;;;;;;6245251;22;20012;-78
2023/03/28 12:18:40;;;;;;;2.50;1.25;;;17.50;26.10;;;;;;6245483;22;20091;-78
2023/03/28 12:21:34;;;;;;;3.67;1.33;;;17.60;25.90;;;;;;6245310;22;20012;-77
2023/03/28 12:24:19;;;;;;;;;;;17.70;26.60;;;;;;6246036;22;20003;-77
2023/03/28 12:27:18;;;;;;;3.08;1.10;;;17.80;25.90;;;;;;6245141;22;19969;-78
2023/03/28 12:30:05;;;;;;;2.50;1.30;;;17.90;27.20;;;;;;6245416;23;20015;-76
2023/03/28 12:32:47;;;;;;;5.00;1.23;;;18.00;26.90;;;;;;6225235;23;20462;-77
2023/03/28 12:35:55;;;;;;;4.43;1.20;;;18.00;27.60;;;;;;6244946;22;20012;-77
2023/03/28 12:38:56;;;;;;;4.07;1.77;;;18.00;27.60;;;;;;6161740;23;20035;-78
2023/03/28 12:41:43;;;;;;;2.58;1.30;;;17.90;26.80;;;;;;6245366;22;20000;-77
2023/03/28 12:44:55;;;;;;;2.97;1.40;;;17.80;26.40;;;;;;6245307;22;20000;-76
2023/03/28 12:47:27;;;;;;;6.25;1.38;;;17.80;27.50;;;;;;6227438;23;20038;-77
2023/03/28 12:50:04;;;;;;;4.32;1.60;;;17.90;27.00;;;;;;6245518;22;20004;-76
2023/03/28 12:52:37;;;;;;;3.10;1.35;;;18.00;27.10;;;;;;6245509;22;20027;-77
2023/03/28 12:55:08;;;;;;;4.95;1.50;;;18.10;27.20;;;;;;6245416;22;20004;-77
2023/03/28 12:57:44;;;;;;;3.13;1.38;;;18.20;27.60;;;;;;6245018;22;20007;-76
2023/03/28 13:00:26;;;;;;;3.60;1.63;;;18.10;26.90;;;;;;6245089;22;20000;-76
2023/03/28 13:03:06;;;;;;;4.05;1.38;;;18.10;26.90;;;;;;6245108;22;20028;-77
2023/03/28 13:05:50;;;;;;;2.80;1.30;;;18.20;26.90;;;;;;6245876;22;20004;-77
2023/03/28 13:08:21;;;;;;;3.22;1.65;;;18.20;27.40;;;;;;6246150;22;20020;-77
2023/03/28 13:11:24;;;;;;;5.10;1.40;;;18.30;27.40;;;;;;6245119;23;20423;-76
2023/03/28 13:14:12;;;;;;;2.97;1.20;;;18.40;26.90;;;;;;6246215;23;20016;-78
2023/03/28 13:16:56;;;;;;;2.20;1.35;;;18.30;25.60;;;;;;6243023;23;20004;-78
2023/03/28 13:19:37;;;;;;;;;;;18.20;25.20;;;;;;6245684;22;20011;-77
2023/03/28 13:22:03;;;;;;;2.15;1.23;;;18.20;24.10;;;;;;6244855;22;19899;-78
2023/03/28 13:24:35;;;;;;;2.58;1.20;;;18.20;24.70;;;;;;6245211;23;20319;-77
2023/03/28 13:27:27;;;;;;;4.32;1.10;;;18.20;24.80;;;;;;6244728;22;20016;-77
2023/03/28 13:30:03;;;;;;;3.67;1.25;;;18.20;24.70;;;;;;6243832;22;20438;-76
2023/03/28 13:32:36;;;;;;;2.25;1.20;;;18.30;24.30;;;;;;6244824;22;20334;-77
2023/03/28 13:35:04;;;;;;;1.40;1.00;;;18.30;24.10;;;;;;6245057;22;20000;-76
2023/03/28 13:37:45;;;;;;;3.67;1.13;;;18.40;24.20;;;;;;6245093;22;20012;-76
2023/03/28 13:40:39;;;;;;;2.22;1.20;;;18.40;23.90;;;;;;6245894;22;20079;-77
2023/03/28 13:43:20;;;;;;;2.10;1.08;;;18.40;23.70;;;;;;6246566;22;20000;-74
2023/03/28 13:45:48;;;;;;;2.53;1.15;;;18.40;24.10;;;;;;6246080;23;19996;-78
2023/03/28 13:48:15;;;;;;;4.22;1.52;;;18.50;24.10;;;;;;6246039;22;20016;-78
2023/03/28 13:50:44;;;;;;;2.13;1.10;;;18.50;24.50;;;;;;6245305;22;20437;-78
2023/03/28 13:53:10;;;;;;;3.83;1.67;;;18.60;24.30;;;;;;6245476;22;19996;-77
2023/03/28 13:55:36;;;;;;;3.53;0.90;;;18.60;24.00;;;;;;6245715;23;20004;-77
2023/03/28 13:58:02;;;;;;;1.30;0.80;;;18.70;23.80;;;;;;6249911;22;19997;-76
2023/03/28 14:00:29;;;;;;;2.05;0.90;;;18.70;23.50;;;;;;6246954;23;20377;-77
2023/03/28 14:03:03;;;;;;;2.58;1.00;;;18.70;23.70;;;;;;6244939;22;20058;-79
2023/03/28 14:05:31;;;;;;;1.67;0.98;;;18.70;24.10;;;;;;6244393;22;20107;-77
2023/03/28 14:08:12;;;;;;;1.73;1.05;;;18.80;24.70;;;;;;6244581;22;20008;-77
2023/03/28 14:10:43;;;;;;;2.72;1.10;;;19.00;23.70;;;;;;6245399;23;20059;-76
2023/03/28 14:13:27;;;;;;;1.77;1.10;;;19.00;24.10;;;;;;6245665;22;20016;-77
2023/03/28 14:15:54;;;;;;;;;;;19.00;23.80;;;;;;6245937;22;20006;-76
2023/03/28 14:18:22;;;;;;;2.42;0.95;;;19.00;22.30;;;;;;6245200;22;19903;-78
2023/03/28 14:20:48;;;;;;;2.35;0.80;;;18.90;23.30;;;;;;6244565;23;20063;-77
2023/03/28 14:23:30;;;;;;;1.90;0.90;;;18.70;23.10;;;;;;6244304;22;20100;-78
2023/03/28 14:25:59;;;;;;;1.48;0.82;;;18.70;23.00;;;;;;6244243;22;20075;-77
2023/03/28 14:28:28;;;;;;;2.20;1.10;;;18.60;23.10;;;;;;6245678;22;20015;-77
2023/03/28 14:30:54;;;;;;;4.18;1.00;;;18.70;23.20;;;;;;6246169;22;20016;-78
2023/03/28 14:33:20;;;;;;;2.30;1.02;;;18.70;22.60;;;;;;6246253;22;20019;-77
2023/03/28 14:36:01;;;;;;;3.95;1.38;;;18.70;22.50;;;;;;6246468;22;20430;-78
2023/03/28 14:38:36;;;;;;;3.58;1.25;;;18.70;22.70;;;;;;6246346;22;20067;-76
2023/03/28 14:41:16;;;;;;;3.15;1.20;;;18.70;22.80;;;;;;6246054;22;20058;-78
2023/03/28 14:43:41;;;;;;;2.38;1.00;;;18.70;23.50;;;;;;6246174;22;20011;-77
2023/03/28 14:46:10;;;;;;;1.50;1.00;;;18.60;22.60;;;;;;6246012;23;20000;-78
2023/03/28 14:48:37;;;;;;;2.92;1.35;;;18.60;22.60;;;;;;6245799;22;20089;-79
2023/03/28 14:51:04;;;;;;;2.05;0.80;;;18.60;22.70;;;;;;6246047;22;20470;-78
2023/03/28 14:53:40;;;;;;;4.07;1.13;;;18.50;22.20;;;;;;6245682;22;20015;-78
2023/03/28 14:56:10;;;;;;;3.72;1.08;;;18.60;22.30;;;;;;6245663;22;19997;-78
2023/03/28 14:58:41;;;;;;;2.13;1.13;;;18.60;22.40;;;;;;6245937;22;20063;-78
2023/03/28 15:01:12;;;;;;;3.40;1.23;;;18.60;22.20;;;;;;6246016;22;20004;-78
2023/03/28 15:03:45;;;;;;;2.47;1.20;;;18.50;22.00;;;;;;6245746;22;20083;-77
2023/03/28 15:06:15;;;;;;;4.53;1.20;;;18.50;22.30;;;;;;6245670;22;20058;-78
2023/03/28 15:08:43;;;;;;;2.72;1.10;;;18.50;22.20;;;;;;6245915;22;20012;-77
2023/03/28 15:11:28;;;;;;;2.03;1.00;;;18.50;22.20;;;;;;6246522;22;19996;-78
2023/03/28 15:14:21;;;;;;;1.98;1.10;;;18.60;21.60;;;;;;6245953;22;20016;-78
2023/03/28 15:16:47;;;;;;;1.52;0.95;;;18.60;21.90;;;;;;6245923;22;20020;-77
2023/03/28 15:19:36;;;;;;;3.35;1.30;;;18.50;22.30;;;;;;6244043;23;20166;-78
2023/03/28 15:22:11;;;;;;;4.45;1.50;;;18.40;22.30;;;;;;6245649;23;20091;-77
2023/03/28 15:24:38;;;;;;;2.65;1.30;;;18.40;22.70;;;;;;6245407;22;20004;-78
2023/03/28 15:27:06;;;;;;;2.63;1.30;;;18.40;22.40;;;;;;6245260;22;20401;-78